Terminal Aerodrome Forecast
Issued by NWS

Home | Current Version | Previous Version | Text Only | Print | Product List | Glossary On
Versions: 1 2 3 4 5 6 7 8 9 10 11 12 13 14 15 16 17 18 19 20 21 22
469
FTUS43 KDLH 261445 AAA
TAFBRD
TAF AMD
KBRD 261445Z 2615/2712 28011G17KT 3SM -SN BR OVC012
     FM261530 31010KT P6SM SCT025
     FM270000 28004KT P6SM SCT025 BKN100
     FM270600 16004KT P6SM BKN040=

USA.gov is the U.S. government's official web portal to all federal, state and local government web resources and services.